Time,TemperatureF,DewpointF,PressureIn,WindDirection,WindDirectionDegrees,WindSpeedMPH,WindSpeedGustMPH,Humidity,HourlyPrecipIn,Conditions,Clouds,dailyrainin,SoftwareType,DateUTC
2014-01-22 00:01:00,64.8,62.7,29.94,NW,314,4.6,4.6,93,0.00,RA,,0.00,WeatherDisplay:10.37,2014-01-22 05:01:00,
2014-01-22 00:02:00,64.8,62.7,29.94,NW,319,3.5,3.5,93,0.00,RA,,0.00,WeatherDisplay:10.37,2014-01-22 05:02:00,
2014-01-22 00:07:00,64.8,62.4,29.94,WNW,302,8.1,8.1,92,0.00,RA,,0.00,WeatherDisplay:10.37,2014-01-22 05:07:00,
2014-01-22 00:12:00,64.7,62.3,29.94,NW,308,6.9,6.9,92,0.00,CLR,,0.00,WeatherDisplay:10.37,2014-01-22 05:12:00,
2014-01-22 00:17:00,64.7,62.3,29.94,SSW,212,8.1,8.1,92,0.00,CLR,,0.00,WeatherDisplay:10.37,2014-01-22 05:17:00,
2014-01-22 00:22:00,64.5,61.5,29.94,West,276,8.0,8.0,90,0.00,CLR,,0.00,WeatherDisplay:10.37,2014-01-22 05:22:00,
2014-01-22 00:27:00,64.2,60.9,29.94,NW,319,3.5,3.5,89,0.00,CLR,,0.00,WeatherDisplay:10.37,2014-01-22 05:27:00,
2014-01-22 00:32:00,64.0,60.4,29.95,NW,314,10.4,10.4,88,0.00,CLR,,0.00,WeatherDisplay:10.37,2014-01-22 05:32:00,
2014-01-22 00:37:00,63.7,60.1,29.95,NW,324,5.8,5.8,88,0.00,CLR,,0.00,WeatherDisplay:10.37,2014-01-22 05:37:00,
2014-01-22 00:42:00,63.4,59.5,29.95,SE,141,8.1,8.1,87,0.00,CLR,,0.00,WeatherDisplay:10.37,2014-01-22 05:42:00,
2014-01-22 00:47:00,63.1,58.8,29.95,North,349,11.5,11.5,86,0.00,CLR,,0.00,WeatherDisplay:10.37,2014-01-22 05:47:00,
2014-01-22 00:52:00,63.1,58.8,29.95,NW,315,8.1,8.1,86,0.00,CLR,,0.00,WeatherDisplay:10.37,2014-01-22 05:52:00,
2014-01-22 00:57:00,63.0,58.4,29.95,WNW,297,6.9,6.9,85,0.00,CLR,,0.00,WeatherDisplay:10.37,2014-01-22 05:57:00,
2014-01-22 01:02:00,62.9,57.7,29.95,West,276,9.2,9.2,83,0.00,CLR,,0.00,WeatherDisplay:10.37,2014-01-22 06:02:00,
2014-01-22 01:07:00,62.7,57.5,29.95,NW,305,5.8,5.8,83,0.00,CLR,,0.00,WeatherDisplay:10.37,2014-01-22 06:07:00,
2014-01-22 01:12:00,62.5,57.3,29.95,ESE,117,9.2,9.2,83,0.00,CLR,,0.00,WeatherDisplay:10.37,2014-01-22 06:12:00,
2014-01-22 01:17:00,62.2,56.6,29.95,West,274,15.0,15.0,82,0.00,CLR,,0.00,WeatherDisplay:10.37,2014-01-22 06:17:00,
2014-01-22 01:22:00,62.2,56.3,29.95,WNW,300,11.0,11.0,81,0.00,CLR,,0.00,WeatherDisplay:10.37,2014-01-22 06:22:00,
2014-01-22 01:27:00,62.1,56.2,29.95,WNW,296,4.0,4.0,81,0.00,CLR,,0.00,WeatherDisplay:10.37,2014-01-22 06:27:00,
2014-01-22 01:32:00,62.1,55.9,29.95,WNW,288,11.5,11.5,80,0.00,CLR,,0.00,WeatherDisplay:10.37,2014-01-22 06:32:00,
2014-01-22 01:37:00,62.1,55.5,29.95,NW,310,10.4,10.4,79,0.00,CLR,,0.00,WeatherDisplay:10.37,2014-01-22 06:37:00,
2014-01-22 01:42:00,62.0,55.4,29.96,NW,313,6.9,6.9,79,0.00,CLR,,0.00,WeatherDisplay:10.37,2014-01-22 06:42:00,
2014-01-22 01:47:00,61.7,55.1,29.95,West,277,6.9,6.9,79,0.00,CLR,,0.00,WeatherDisplay:10.37,2014-01-22 06:47:00,
2014-01-22 01:52:00,61.5,54.9,29.96,NW,308,4.6,4.6,79,0.00,CLR,,0.00,WeatherDisplay:10.37,2014-01-22 06:52:00,
2014-01-22 01:57:00,61.3,54.7,29.96,WNW,301,7.0,7.0,79,0.00,CLR,,0.00,WeatherDisplay:10.37,2014-01-22 06:57:00,
2014-01-22 02:02:00,61.1,54.2,29.96,NW,304,6.9,6.9,78,0.00,CLR,,0.00,WeatherDisplay:10.37,2014-01-22 07:02:00,
2014-01-22 02:07:00,60.9,54.0,29.96,WSW,252,3.5,3.5,78,0.00,CLR,,0.00,WeatherDisplay:10.37,2014-01-22 07:07:00,
2014-01-22 02:12:00,60.7,53.4,29.96,NW,304,5.0,5.0,77,0.00,CLR,,0.00,WeatherDisplay:10.37,2014-01-22 07:12:00,
2014-01-22 02:17:00,60.7,53.4,29.96,SSE,150,6.9,6.9,77,0.00,CLR,,0.00,WeatherDisplay:10.37,2014-01-22 07:17:00,
2014-01-22 02:22:00,60.5,53.6,29.96,ENE,68,5.8,5.8,78,0.00,CLR,,0.00,WeatherDisplay:10.37,2014-01-22 07:22:00,
2014-01-22 02:27:00,60.7,53.4,29.96,SSW,207,9.2,9.2,77,0.00,CLR,,0.00,WeatherDisplay:10.37,2014-01-22 07:27:00,
2014-01-22 02:32:00,60.8,53.9,29.96,NW,325,11.5,11.5,78,0.00,CLR,,0.00,WeatherDisplay:10.37,2014-01-22 07:32:00,
2014-01-22 02:37:00,60.7,53.8,29.96,West,271,9.2,9.2,78,0.00,CLR,,0.00,WeatherDisplay:10.37,2014-01-22 07:37:00,
2014-01-22 02:42:00,60.4,53.9,29.97,NW,305,6.0,6.0,79,0.00,CLR,,0.00,WeatherDisplay:10.37,2014-01-22 07:42:00,
2014-01-22 02:47:00,60.3,53.8,29.97,WNW,293,5.8,5.8,79,0.00,CLR,,0.00,WeatherDisplay:10.37,2014-01-22 07:47:00,
2014-01-22 02:52:00,60.2,53.7,29.97,NW,307,6.9,6.9,79,0.00,CLR,,0.00,WeatherDisplay:10.37,2014-01-22 07:52:00,
2014-01-22 02:57:00,60.2,54.0,29.97,WNW,302,6.9,6.9,80,0.00,CLR,,0.00,WeatherDisplay:10.37,2014-01-22 07:57:00,
2014-01-22 03:02:00,60.1,54.2,29.97,NW,314,8.1,8.1,81,0.00,CLR,,0.00,WeatherDisplay:10.37,2014-01-22 08:02:00,
2014-01-22 03:07:00,59.9,54.1,29.97,WNW,293,11.0,11.0,81,0.00,CLR,,0.00,WeatherDisplay:10.37,2014-01-22 08:07:00,
2014-01-22 03:12:00,59.7,53.9,29.98,WNW,287,6.9,6.9,81,0.00,CLR,,0.00,WeatherDisplay:10.37,2014-01-22 08:12:00,
2014-01-22 03:17:00,59.5,53.3,29.98,NW,314,10.4,10.4,80,0.00,CLR,,0.00,WeatherDisplay:10.37,2014-01-22 08:17:00,
2014-01-22 03:22:00,59.4,52.9,29.97,WNW,290,10.4,10.4,79,0.00,CLR,,0.00,WeatherDisplay:10.37,2014-01-22 08:22:00,
2014-01-22 03:27:00,59.3,52.8,29.98,WNW,302,4.6,4.6,79,0.00,CLR,,0.00,WeatherDisplay:10.37,2014-01-22 08:27:00,
2014-01-22 03:32:00,59.1,52.2,29.98,WNW,293,8.1,8.1,78,0.00,CLR,,0.00,WeatherDisplay:10.37,2014-01-22 08:32:00,
2014-01-22 03:37:00,59.0,52.1,29.98,WNW,300,9.2,9.2,78,0.00,CLR,,0.00,WeatherDisplay:10.37,2014-01-22 08:37:00,
2014-01-22 03:42:00,58.9,52.1,29.98,NW,305,6.9,6.9,78,0.00,CLR,,0.00,WeatherDisplay:10.37,2014-01-22 08:42:00,
2014-01-22 03:47:00,58.8,52.0,29.98,NW,325,5.8,5.8,78,0.00,CLR,,0.00,WeatherDisplay:10.37,2014-01-22 08:47:00,
2014-01-22 03:52:00,58.6,51.4,29.98,NW,310,11.5,11.5,77,0.00,CLR,,0.00,WeatherDisplay:10.37,2014-01-22 08:52:00,
2014-01-22 03:57:00,58.4,51.2,29.98,West,270,11.5,11.5,77,0.00,CLR,,0.00,WeatherDisplay:10.37,2014-01-22 08:57:00,
2014-01-22 04:02:00,58.3,51.1,29.99,NW,318,6.0,6.0,77,0.00,CLR,,0.00,WeatherDisplay:10.37,2014-01-22 09:02:00,
2014-01-22 04:07:00,58.2,51.0,29.99,NW,310,7.0,7.0,77,0.00,CLR,,0.00,WeatherDisplay:10.37,2014-01-22 09:07:00,
2014-01-22 04:12:00,58.2,50.7,29.99,NW,310,9.2,9.2,76,0.00,CLR,,0.00,WeatherDisplay:10.37,2014-01-22 09:12:00,
2014-01-22 04:17:00,58.1,50.6,29.99,NW,314,9.2,9.2,76,0.00,CLR,,0.00,WeatherDisplay:10.37,2014-01-22 09:17:00,
2014-01-22 04:22:00,58.1,50.6,30.00,NW,304,6.9,6.9,76,0.00,CLR,,0.00,WeatherDisplay:10.37,2014-01-22 09:22:00,
2014-01-22 04:27:00,58.1,50.6,30.00,WNW,294,8.1,8.1,76,0.00,CLR,,0.00,WeatherDisplay:10.37,2014-01-22 09:27:00,
2014-01-22 04:32:00,57.9,50.4,30.00,WNW,296,9.0,9.0,76,0.00,CLR,,0.00,WeatherDisplay:10.37,2014-01-22 09:32:00,
2014-01-22 04:37:00,57.9,50.0,30.00,NW,323,5.8,5.8,75,0.00,CLR,,0.00,WeatherDisplay:10.37,2014-01-22 09:37:00,
2014-01-22 04:42:00,57.8,50.3,30.00,North,352,5.8,5.8,76,0.00,CLR,,0.00,WeatherDisplay:10.37,2014-01-22 09:42:00,
2014-01-22 04:47:00,57.8,49.9,30.00,NW,321,8.1,8.1,75,0.00,CLR,,0.00,WeatherDisplay:10.37,2014-01-22 09:47:00,
2014-01-22 04:52:00,57.7,49.8,30.00,NW,319,4.6,4.9,75,0.00,CLR,,0.00,WeatherDisplay:10.37,2014-01-22 09:52:00,
2014-01-22 04:57:00,57.6,49.4,30.00,NW,311,10.4,10.4,74,0.00,CLR,,0.00,WeatherDisplay:10.37,2014-01-22 09:57:00,
2014-01-22 05:02:00,57.6,49.4,30.01,WNW,300,4.0,4.0,74,0.00,CLR,,0.00,WeatherDisplay:10.37,2014-01-22 10:02:00,
2014-01-22 05:07:00,57.3,49.1,30.01,WNW,297,8.1,8.1,74,0.00,CLR,,0.00,WeatherDisplay:10.37,2014-01-22 10:07:00,
2014-01-22 05:12:00,57.0,49.2,30.01,NW,309,3.5,3.5,75,0.00,CLR,,0.00,WeatherDisplay:10.37,2014-01-22 10:12:00,
2014-01-22 05:17:00,56.7,48.9,30.02,NNW,342,5.0,5.0,75,0.00,CLR,,0.00,WeatherDisplay:10.37,2014-01-22 10:17:00,
2014-01-22 05:22:00,56.4,48.6,30.02,North,6,6.9,6.9,75,0.00,CLR,,0.00,WeatherDisplay:10.37,2014-01-22 10:22:00,
2014-01-22 05:27:00,56.1,48.6,30.03,WNW,302,5.8,5.8,76,0.00,CLR,,0.00,WeatherDisplay:10.37,2014-01-22 10:27:00,
2014-01-22 05:32:00,55.7,48.2,30.03,NW,322,8.1,8.1,76,0.00,CLR,,0.00,WeatherDisplay:10.37,2014-01-22 10:32:00,
2014-01-22 05:37:00,55.3,48.2,30.03,NW,314,4.6,4.6,77,0.00,CLR,,0.00,WeatherDisplay:10.37,2014-01-22 10:37:00,
2014-01-22 05:42:00,55.1,48.0,30.03,NW,321,5.8,5.8,77,0.00,CLR,,0.00,WeatherDisplay:10.37,2014-01-22 10:42:00,
2014-01-22 05:47:00,54.7,47.6,30.03,NW,320,5.8,5.8,77,0.00,CLR,,0.00,WeatherDisplay:10.37,2014-01-22 10:47:00,
2014-01-22 05:52:00,54.5,47.4,30.04,NW,314,8.1,8.1,77,0.00,CLR,,0.00,WeatherDisplay:10.37,2014-01-22 10:52:00,
2014-01-22 05:57:00,54.3,47.2,30.04,NNW,338,5.8,5.8,77,0.00,CLR,,0.00,WeatherDisplay:10.37,2014-01-22 10:57:00,
2014-01-22 06:02:00,54.1,47.0,30.04,NW,314,5.8,5.8,77,0.00,CLR,,0.00,WeatherDisplay:10.37,2014-01-22 11:02:00,
2014-01-22 06:07:00,53.9,47.2,30.04,NNW,330,4.6,4.6,78,0.00,CLR,,0.00,WeatherDisplay:10.37,2014-01-22 11:07:00,
2014-01-22 06:12:00,53.7,47.0,30.05,NW,318,5.8,5.8,78,0.00,CLR,,0.00,WeatherDisplay:10.37,2014-01-22 11:12:00,
2014-01-22 06:17:00,53.6,46.9,30.05,WNW,302,3.5,3.5,78,0.00,CLR,,0.00,WeatherDisplay:10.37,2014-01-22 11:17:00,
2014-01-22 06:22:00,53.3,46.6,30.05,NW,316,4.6,4.6,78,0.00,CLR,,0.00,WeatherDisplay:10.37,2014-01-22 11:22:00,
2014-01-22 06:27:00,53.1,46.4,30.06,NW,322,4.6,4.7,78,0.00,CLR,,0.00,WeatherDisplay:10.37,2014-01-22 11:27:00,
2014-01-22 06:32:00,52.9,46.2,30.06,NW,318,4.6,4.6,78,0.00,CLR,,0.00,WeatherDisplay:10.37,2014-01-22 11:32:00,
2014-01-22 06:37:00,52.8,46.1,30.06,NW,316,3.5,3.5,78,0.00,CLR,,0.00,WeatherDisplay:10.37,2014-01-22 11:37:00,
2014-01-22 06:42:00,52.6,45.9,30.06,NW,324,6.9,6.9,78,0.00,CLR,,0.00,WeatherDisplay:10.37,2014-01-22 11:42:00,
2014-01-22 06:47:00,52.5,45.8,30.06,NW,309,5.8,5.8,78,0.00,CLR,,0.00,WeatherDisplay:10.37,2014-01-22 11:47:00,
2014-01-22 06:52:00,52.4,45.7,30.07,NW,325,5.8,5.8,78,0.00,CLR,,0.00,WeatherDisplay:10.37,2014-01-22 11:52:00,
2014-01-22 06:57:00,52.2,45.5,30.07,NNW,331,6.0,6.0,78,0.00,CLR,,0.00,WeatherDisplay:10.37,2014-01-22 11:57:00,
2014-01-22 07:02:00,52.1,45.4,30.07,NNW,347,3.5,3.5,78,0.00,CLR,,0.00,WeatherDisplay:10.37,2014-01-22 12:02:00,
2014-01-22 07:07:00,52.0,45.4,30.07,NW,318,3.5,3.5,78,0.00,CLR,,0.00,WeatherDisplay:10.37,2014-01-22 12:07:00,
2014-01-22 07:12:00,51.8,45.5,30.08,NNW,334,3.5,3.5,79,0.00,CLR,,0.00,WeatherDisplay:10.37,2014-01-22 12:12:00,
2014-01-22 07:17:00,51.7,45.4,30.08,NW,325,3.5,3.5,79,0.00,CLR,,0.00,WeatherDisplay:10.37,2014-01-22 12:17:00,
2014-01-22 07:22:00,51.5,45.2,30.08,NW,314,3.5,3.5,79,0.00,CLR,,0.00,WeatherDisplay:10.37,2014-01-22 12:22:00,
2014-01-22 07:27:00,51.4,45.1,30.08,NW,309,3.5,3.5,79,0.00,CLR,,0.00,WeatherDisplay:10.37,2014-01-22 12:27:00,
2014-01-22 07:32:00,51.3,45.0,30.08,NW,323,3.5,3.5,79,0.00,CLR,,0.00,WeatherDisplay:10.37,2014-01-22 12:32:00,
2014-01-22 07:37:00,51.4,45.1,30.08,NW,325,3.5,3.5,79,0.00,CLR,,0.00,WeatherDisplay:10.37,2014-01-22 12:37:00,
2014-01-22 07:42:00,51.7,45.4,30.09,NW,316,4.6,4.6,79,0.00,CLR,,0.00,WeatherDisplay:10.37,2014-01-22 12:42:00,
2014-01-22 07:47:00,52.0,45.4,30.09,North,349,3.5,3.5,78,0.00,CLR,,0.00,WeatherDisplay:10.37,2014-01-22 12:47:00,
2014-01-22 07:52:00,52.3,45.3,30.09,NNW,345,4.6,4.6,77,0.00,CLR,,0.00,WeatherDisplay:10.37,2014-01-22 12:52:00,
2014-01-22 07:57:00,52.4,45.4,30.10,North,352,6.0,6.0,77,0.00,CLR,,0.00,WeatherDisplay:10.37,2014-01-22 12:57:00,
2014-01-22 08:02:00,52.5,44.8,30.10,North,349,8.1,8.1,75,0.00,CLR,,0.00,WeatherDisplay:10.37,2014-01-22 13:02:00,
2014-01-22 08:07:00,52.7,45.0,30.10,NNW,342,6.0,6.0,75,0.00,CLR,,0.00,WeatherDisplay:10.37,2014-01-22 13:07:00,
2014-01-22 08:12:00,52.9,44.8,30.10,NNW,338,6.9,6.9,74,0.00,CLR,,0.00,WeatherDisplay:10.37,2014-01-22 13:12:00,
2014-01-22 08:17:00,53.0,44.9,30.11,NNW,332,5.8,5.8,74,0.00,CLR,,0.00,WeatherDisplay:10.37,2014-01-22 13:17:00,
2014-01-22 08:22:00,53.2,44.8,30.11,NW,326,5.8,5.8,73,0.00,CLR,,0.00,WeatherDisplay:10.37,2014-01-22 13:22:00,
2014-01-22 08:27:00,53.5,45.1,30.11,NNW,338,5.8,5.8,73,0.00,CLR,,0.00,WeatherDisplay:10.37,2014-01-22 13:27:00,
2014-01-22 08:32:00,53.8,45.3,30.11,NNW,340,6.0,6.0,73,0.00,CLR,,0.00,WeatherDisplay:10.37,2014-01-22 13:32:00,
2014-01-22 08:37:00,53.9,45.1,30.11,NW,319,7.0,7.0,72,0.00,CLR,,0.00,WeatherDisplay:10.37,2014-01-22 13:37:00,
2014-01-22 08:42:00,53.9,45.1,30.11,NW,322,6.9,6.9,72,0.00,CLR,,0.00,WeatherDisplay:10.37,2014-01-22 13:42:00,
2014-01-22 08:47:00,54.1,44.9,30.12,NNW,338,8.1,8.1,71,0.00,CLR,,0.00,WeatherDisplay:10.37,2014-01-22 13:47:00,
2014-01-22 08:52:00,54.4,44.8,30.12,NNW,332,10.4,10.4,70,0.00,CLR,,0.00,WeatherDisplay:10.37,2014-01-22 13:52:00,
2014-01-22 08:57:00,54.6,45.0,30.12,NW,320,9.2,9.2,70,0.00,CLR,,0.00,WeatherDisplay:10.37,2014-01-22 13:57:00,
2014-01-22 09:02:00,54.7,44.7,30.12,NNW,338,9.2,9.2,69,0.00,CLR,,0.00,WeatherDisplay:10.37,2014-01-22 14:02:00,
2014-01-22 09:07:00,54.9,44.9,30.13,NNW,333,10.4,10.4,69,0.00,CLR,,0.00,WeatherDisplay:10.37,2014-01-22 14:07:00,
2014-01-22 09:12:00,55.2,45.2,30.13,North,350,8.1,8.1,69,0.00,CLR,,0.00,WeatherDisplay:10.37,2014-01-22 14:12:00,
2014-01-22 09:17:00,55.4,45.4,30.13,NNW,338,8.1,8.1,69,0.00,CLR,,0.00,WeatherDisplay:10.37,2014-01-22 14:17:00,
2014-01-22 09:22:00,55.7,45.3,30.13,NNW,335,5.8,5.8,68,0.00,CLR,,0.00,WeatherDisplay:10.37,2014-01-22 14:22:00,
2014-01-22 09:27:00,55.7,45.3,30.13,WNW,298,9.2,9.2,68,0.00,CLR,,0.00,WeatherDisplay:10.37,2014-01-22 14:27:00,
2014-01-22 09:32:00,56.5,46.1,30.13,NW,320,7.0,7.0,68,0.00,CLR,,0.00,WeatherDisplay:10.37,2014-01-22 14:32:00,
2014-01-22 09:37:00,56.5,45.7,30.14,NNW,332,8.1,8.1,67,0.00,CLR,,0.00,WeatherDisplay:10.37,2014-01-22 14:37:00,
2014-01-22 09:42:00,56.3,45.5,30.14,NW,322,9.2,9.2,67,0.00,CLR,,0.00,WeatherDisplay:10.37,2014-01-22 14:42:00,
2014-01-22 09:47:00,56.3,45.5,30.14,NW,309,11.5,11.5,67,0.00,CLR,,0.00,WeatherDisplay:10.37,2014-01-22 14:47:00,
2014-01-22 09:52:00,56.3,45.5,30.14,NNW,328,9.2,9.2,67,0.00,CLR,,0.00,WeatherDisplay:10.37,2014-01-22 14:52:00,
2014-01-22 09:57:00,56.6,45.8,30.14,NW,308,8.1,8.1,67,0.00,CLR,,0.00,WeatherDisplay:10.37,2014-01-22 14:57:00,
2014-01-22 10:02:00,56.8,46.0,30.14,West,278,10.4,10.4,67,0.00,CLR,,0.00,WeatherDisplay:10.37,2014-01-22 15:02:00,
2014-01-22 10:07:00,57.2,45.9,30.15,NW,316,6.9,6.9,66,0.00,CLR,,0.00,WeatherDisplay:10.37,2014-01-22 15:07:00,
2014-01-22 10:12:00,57.2,45.5,30.15,North,356,10.0,10.0,65,0.00,CLR,,0.00,WeatherDisplay:10.37,2014-01-22 15:12:00,
2014-01-22 10:17:00,57.3,46.0,30.14,NW,312,5.8,6.2,66,0.00,CLR,,0.00,WeatherDisplay:10.37,2014-01-22 15:17:00,
2014-01-22 10:22:00,57.4,45.7,30.15,NW,314,11.5,11.5,65,0.00,CLR,,0.00,WeatherDisplay:10.37,2014-01-22 15:22:00,
2014-01-22 10:27:00,57.8,46.1,30.15,WNW,302,10.4,10.4,65,0.00,CLR,,0.00,WeatherDisplay:10.37,2014-01-22 15:27:00,
2014-01-22 10:32:00,57.9,46.2,30.15,WNW,299,5.8,5.8,65,0.00,CLR,,0.00,WeatherDisplay:10.37,2014-01-22 15:32:00,
2014-01-22 10:37:00,58.3,47.0,30.15,WNW,302,8.1,8.1,66,0.00,CLR,,0.00,WeatherDisplay:10.37,2014-01-22 15:37:00,
2014-01-22 10:42:00,58.0,46.3,30.15,NW,311,9.2,9.2,65,0.00,CLR,,0.00,WeatherDisplay:10.37,2014-01-22 15:42:00,
2014-01-22 10:47:00,58.4,46.7,30.15,West,273,9.2,9.2,65,0.00,CLR,,0.00,WeatherDisplay:10.37,2014-01-22 15:47:00,
2014-01-22 10:52:00,58.5,46.8,30.15,North,352,10.4,10.4,65,0.00,CLR,,0.00,WeatherDisplay:10.37,2014-01-22 15:52:00,
2014-01-22 10:57:00,59.0,47.2,30.15,WNW,300,6.9,6.9,65,0.00,CLR,,0.00,WeatherDisplay:10.37,2014-01-22 15:57:00,
2014-01-22 11:02:00,59.3,46.7,30.15,WNW,289,6.9,6.9,63,0.00,CLR,,0.00,WeatherDisplay:10.37,2014-01-22 16:02:00,
2014-01-22 11:07:00,59.1,47.3,30.15,WNW,288,8.0,8.0,65,0.00,CLR,,0.00,WeatherDisplay:10.37,2014-01-22 16:07:00,
2014-01-22 11:12:00,58.7,46.1,30.16,NW,304,11.5,11.5,63,0.00,CLR,,0.00,WeatherDisplay:10.37,2014-01-22 16:12:00,
2014-01-22 11:17:00,59.0,47.2,30.16,NW,308,6.0,6.0,65,0.00,CLR,,0.00,WeatherDisplay:10.37,2014-01-22 16:17:00,
2014-01-22 11:22:00,59.6,47.0,30.15,SW,233,4.6,4.6,63,0.00,CLR,,0.00,WeatherDisplay:10.37,2014-01-22 16:22:00,
2014-01-22 11:27:00,60.0,47.4,30.15,NW,326,8.1,8.1,63,0.00,CLR,,0.00,WeatherDisplay:10.37,2014-01-22 16:27:00,
2014-01-22 11:32:00,59.3,47.1,30.15,North,350,5.0,5.0,64,0.00,CLR,,0.00,WeatherDisplay:10.37,2014-01-22 16:32:00,
2014-01-22 11:37:00,59.4,46.4,30.15,NW,322,10.4,10.4,62,0.00,CLR,,0.00,WeatherDisplay:10.37,2014-01-22 16:37:00,
2014-01-22 11:42:00,59.2,46.6,30.15,SSW,207,8.1,8.1,63,0.00,CLR,,0.00,WeatherDisplay:10.37,2014-01-22 16:42:00,
2014-01-22 11:47:00,59.8,47.2,30.15,NW,311,9.2,9.2,63,0.00,CLR,,0.00,WeatherDisplay:10.37,2014-01-22 16:47:00,
2014-01-22 11:52:00,60.1,46.6,30.15,WNW,289,5.0,5.0,61,0.00,CLR,,0.00,WeatherDisplay:10.37,2014-01-22 16:52:00,
2014-01-22 11:57:00,59.2,46.2,30.15,NNW,334,8.1,8.1,62,0.00,CLR,,0.00,WeatherDisplay:10.37,2014-01-22 16:57:00,
2014-01-22 12:02:00,59.4,45.9,30.15,NNW,337,11.5,11.5,61,0.00,CLR,,0.00,WeatherDisplay:10.37,2014-01-22 17:02:00,
2014-01-22 12:07:00,59.4,46.4,30.15,NW,308,5.8,5.8,62,0.00,CLR,,0.00,WeatherDisplay:10.37,2014-01-22 17:07:00,
2014-01-22 12:12:00,59.3,46.7,30.14,WNW,284,6.9,6.9,63,0.00,CLR,,0.00,WeatherDisplay:10.37,2014-01-22 17:12:00,
2014-01-22 12:17:00,60.0,46.9,30.15,WNW,297,11.5,11.5,62,0.00,CLR,,0.00,WeatherDisplay:10.37,2014-01-22 17:17:00,
2014-01-22 12:22:00,59.5,46.9,30.14,WNW,286,6.9,6.9,63,0.00,CLR,,0.00,WeatherDisplay:10.37,2014-01-22 17:22:00,
2014-01-22 12:27:00,59.7,46.2,30.14,WNW,302,5.0,5.0,61,0.00,CLR,,0.00,WeatherDisplay:10.37,2014-01-22 17:27:00,
2014-01-22 12:32:00,59.7,46.7,30.14,West,260,8.1,8.1,62,0.00,CLR,,0.00,WeatherDisplay:10.37,2014-01-22 17:32:00,
2014-01-22 12:37:00,60.3,45.9,30.14,SSE,165,6.9,6.9,59,0.00,CLR,,0.00,WeatherDisplay:10.37,2014-01-22 17:37:00,
2014-01-22 12:42:00,60.1,47.0,30.13,SW,226,6.9,6.9,62,0.00,CLR,,0.00,WeatherDisplay:10.37,2014-01-22 17:42:00,
2014-01-22 12:47:00,59.5,46.0,30.13,SSW,194,4.6,4.6,61,0.00,CLR,,0.00,WeatherDisplay:10.37,2014-01-22 17:47:00,
2014-01-22 12:52:00,60.4,47.7,30.13,South,177,5.8,5.8,63,0.00,CLR,,0.00,WeatherDisplay:10.37,2014-01-22 17:52:00,
2014-01-22 12:57:00,60.9,46.9,30.13,North,11,3.5,3.5,60,0.00,CLR,,0.00,WeatherDisplay:10.37,2014-01-22 17:57:00,
2014-01-22 13:02:00,60.8,47.3,30.13,WNW,289,3.5,3.5,61,0.00,CLR,,0.00,WeatherDisplay:10.37,2014-01-22 18:02:00,
2014-01-22 13:07:00,60.7,46.7,30.12,WSW,257,6.9,6.9,60,0.00,CLR,,0.00,WeatherDisplay:10.37,2014-01-22 18:07:00,
2014-01-22 13:12:00,60.3,46.8,30.12,North,1,8.1,8.1,61,0.00,CLR,,0.00,WeatherDisplay:10.37,2014-01-22 18:12:00,
2014-01-22 13:17:00,60.5,47.8,30.12,SW,231,3.5,3.5,63,0.00,CLR,,0.00,WeatherDisplay:10.37,2014-01-22 18:17:00,
2014-01-22 13:22:00,60.2,47.1,30.12,West,263,6.9,6.9,62,0.00,CLR,,0.00,WeatherDisplay:10.37,2014-01-22 18:22:00,
2014-01-22 13:27:00,60.4,47.3,30.12,WSW,249,3.5,3.6,62,0.00,CLR,,0.00,WeatherDisplay:10.37,2014-01-22 18:27:00,
2014-01-22 13:32:00,60.7,46.7,30.12,NE,41,9.2,9.2,60,0.00,CLR,,0.00,WeatherDisplay:10.37,2014-01-22 18:32:00,
2014-01-22 13:37:00,60.5,46.5,30.12,NW,322,10.4,10.4,60,0.00,CLR,,0.00,WeatherDisplay:10.37,2014-01-22 18:37:00,
2014-01-22 13:42:00,60.9,47.4,30.12,WSW,237,5.0,5.0,61,0.00,CLR,,0.00,WeatherDisplay:10.37,2014-01-22 18:42:00,
2014-01-22 13:47:00,60.2,45.4,30.11,WSW,240,15.0,15.0,58,0.00,CLR,,0.00,WeatherDisplay:10.37,2014-01-22 18:47:00,
2014-01-22 13:52:00,59.7,46.7,30.11,NW,319,8.1,8.1,62,0.00,CLR,,0.00,WeatherDisplay:10.37,2014-01-22 18:52:00,
2014-01-22 13:57:00,59.9,47.3,30.11,WNW,287,5.8,5.8,63,0.00,CLR,,0.00,WeatherDisplay:10.37,2014-01-22 18:57:00,
2014-01-22 14:03:00,59.6,46.1,30.11,NW,319,4.6,7.0,61,0.00,CLR,,0.00,WeatherDisplay:10.37,2014-01-22 19:03:00,
2014-01-22 14:08:00,59.8,46.3,30.11,WNW,300,4.6,4.6,61,0.00,CLR,,0.00,WeatherDisplay:10.37,2014-01-22 19:08:00,
2014-01-22 14:13:00,59.7,46.7,30.11,NNW,338,4.6,4.6,62,0.00,CLR,,0.00,WeatherDisplay:10.37,2014-01-22 19:13:00,
2014-01-22 14:18:00,59.7,46.2,30.11,SSW,207,8.1,8.1,61,0.00,CLR,,0.00,WeatherDisplay:10.37,2014-01-22 19:18:00,
2014-01-22 14:23:00,59.6,46.1,30.11,North,360,10.0,10.0,61,0.00,CLR,,0.00,WeatherDisplay:10.37,2014-01-22 19:23:00,
2014-01-22 14:28:00,59.5,46.0,30.11,NW,322,10.4,10.4,61,0.00,CLR,,0.00,WeatherDisplay:10.37,2014-01-22 19:28:00,
2014-01-22 14:33:00,59.2,45.3,30.11,West,280,11.5,11.5,60,0.00,CLR,,0.00,WeatherDisplay:10.37,2014-01-22 19:33:00,
2014-01-22 14:38:00,59.0,46.0,30.11,West,267,6.9,6.9,62,0.00,CLR,,0.00,WeatherDisplay:10.37,2014-01-22 19:38:00,
2014-01-22 14:43:00,59.3,46.3,30.11,North,356,8.1,8.1,62,0.00,CLR,,0.00,WeatherDisplay:10.37,2014-01-22 19:43:00,
2014-01-22 14:48:00,59.3,45.8,30.11,WSW,255,8.1,8.1,61,0.00,CLR,,0.00,WeatherDisplay:10.37,2014-01-22 19:48:00,
2014-01-22 14:53:00,59.1,45.7,30.11,NW,312,8.0,8.0,61,0.00,CLR,,0.00,WeatherDisplay:10.37,2014-01-22 19:53:00,
2014-01-22 14:58:00,58.7,45.7,30.11,WNW,293,9.2,9.2,62,0.00,CLR,,0.00,WeatherDisplay:10.37,2014-01-22 19:58:00,
2014-01-22 15:03:00,58.6,45.6,30.11,West,264,5.8,5.8,62,0.00,CLR,,0.00,WeatherDisplay:10.37,2014-01-22 20:03:00,
2014-01-22 15:08:00,58.9,45.9,30.11,NNW,328,6.0,6.0,62,0.00,CLR,,0.00,WeatherDisplay:10.37,2014-01-22 20:08:00,
2014-01-22 15:13:00,58.9,45.9,30.11,NW,319,5.8,5.8,62,0.00,CLR,,0.00,WeatherDisplay:10.37,2014-01-22 20:13:00,
2014-01-22 15:18:00,59.0,46.4,30.11,SW,217,6.9,6.9,63,0.00,CLR,,0.00,WeatherDisplay:10.37,2014-01-22 20:18:00,
2014-01-22 15:23:00,58.8,45.8,30.11,SW,221,8.1,8.1,62,0.00,CLR,,0.00,WeatherDisplay:10.37,2014-01-22 20:23:00,
2014-01-22 15:28:00,59.0,46.4,30.11,SW,226,4.0,4.0,63,0.00,CLR,,0.00,WeatherDisplay:10.37,2014-01-22 20:28:00,
2014-01-22 15:33:00,59.1,46.1,30.11,NW,326,5.0,5.0,62,0.00,CLR,,0.00,WeatherDisplay:10.37,2014-01-22 20:33:00,
2014-01-22 15:38:00,58.6,46.0,30.11,NW,314,9.2,9.2,63,0.00,CLR,,0.00,WeatherDisplay:10.37,2014-01-22 20:38:00,
2014-01-22 15:43:00,58.3,46.2,30.11,NNW,342,4.6,4.6,64,0.00,CLR,,0.00,WeatherDisplay:10.37,2014-01-22 20:43:00,
2014-01-22 15:48:00,58.2,45.2,30.11,WNW,288,9.2,9.2,62,0.00,CLR,,0.00,WeatherDisplay:10.37,2014-01-22 20:48:00,
2014-01-22 15:53:00,58.0,45.9,30.11,NW,310,9.2,9.2,64,0.00,CLR,,0.00,WeatherDisplay:10.37,2014-01-22 20:53:00,
2014-01-22 15:58:00,57.8,45.3,30.12,NW,319,9.2,9.2,63,0.00,CLR,,0.00,WeatherDisplay:10.37,2014-01-22 20:58:00,
2014-01-22 16:03:00,57.9,46.2,30.12,NNW,334,4.0,4.0,65,0.00,CLR,,0.00,WeatherDisplay:10.37,2014-01-22 21:03:00,
2014-01-22 16:08:00,57.8,45.7,30.12,NW,314,6.9,6.9,64,0.00,CLR,,0.00,WeatherDisplay:10.37,2014-01-22 21:08:00,
2014-01-22 16:13:00,57.8,45.3,30.12,WNW,300,7.0,7.1,63,0.00,CLR,,0.00,WeatherDisplay:10.37,2014-01-22 21:13:00,
2014-01-22 16:18:00,57.6,45.9,30.12,NW,324,5.8,5.8,65,0.00,CLR,,0.00,WeatherDisplay:10.37,2014-01-22 21:18:00,
2014-01-22 16:23:00,57.4,45.3,30.13,WSW,257,5.8,5.8,64,0.00,CLR,,0.00,WeatherDisplay:10.37,2014-01-22 21:23:00,
2014-01-22 16:28:00,57.1,45.4,30.13,WNW,284,10.4,10.4,65,0.00,CLR,,0.00,WeatherDisplay:10.37,2014-01-22 21:28:00,
2014-01-22 16:33:00,56.9,45.7,30.13,WNW,297,5.0,5.0,66,0.00,CLR,,0.00,WeatherDisplay:10.37,2014-01-22 21:33:00,
2014-01-22 16:38:00,56.9,46.1,30.12,SW,226,4.6,4.6,67,0.00,CLR,,0.00,WeatherDisplay:10.37,2014-01-22 21:38:00,
2014-01-22 16:43:00,56.9,45.7,30.13,NW,310,6.0,6.0,66,0.00,CLR,,0.00,WeatherDisplay:10.37,2014-01-22 21:43:00,
2014-01-22 16:48:00,56.7,45.5,30.13,NW,312,6.0,6.0,66,0.00,CLR,,0.00,WeatherDisplay:10.37,2014-01-22 21:48:00,
2014-01-22 16:53:00,56.2,45.0,30.13,WNW,297,5.8,5.8,66,0.00,CLR,,0.00,WeatherDisplay:10.37,2014-01-22 21:53:00,
2014-01-22 16:58:00,56.0,45.6,30.13,NNW,334,4.6,4.6,68,0.00,CLR,,0.00,WeatherDisplay:10.37,2014-01-22 21:58:00,
2014-01-22 17:03:00,55.8,45.4,30.13,West,273,11.5,11.5,68,0.00,CLR,,0.00,WeatherDisplay:10.37,2014-01-22 22:03:00,
2014-01-22 17:08:00,55.4,45.4,30.14,West,260,3.5,3.5,69,0.00,CLR,,0.00,WeatherDisplay:10.37,2014-01-22 22:08:00,
2014-01-22 17:13:00,55.3,44.9,30.14,West,266,6.9,6.9,68,0.00,CLR,,0.00,WeatherDisplay:10.37,2014-01-22 22:13:00,
2014-01-22 17:18:00,55.0,45.4,30.14,WNW,290,6.9,6.9,70,0.00,CLR,,0.00,WeatherDisplay:10.37,2014-01-22 22:18:00,
2014-01-22 17:23:00,54.9,45.3,30.14,WNW,293,6.9,6.9,70,0.00,CLR,,0.00,WeatherDisplay:10.37,2014-01-22 22:23:00,
2014-01-22 17:28:00,54.7,45.5,30.14,West,270,6.9,6.9,71,0.00,CLR,,0.00,WeatherDisplay:10.37,2014-01-22 22:28:00,
2014-01-22 17:33:00,54.6,45.8,30.14,NW,325,5.8,5.8,72,0.00,CLR,,0.00,WeatherDisplay:10.37,2014-01-22 22:33:00,
2014-01-22 17:38:00,54.4,45.2,30.14,WNW,294,8.1,8.1,71,0.00,CLR,,0.00,WeatherDisplay:10.37,2014-01-22 22:38:00,
2014-01-22 17:43:00,54.3,45.5,30.15,NW,305,5.0,5.0,72,0.00,CLR,,0.00,WeatherDisplay:10.37,2014-01-22 22:43:00,
2014-01-22 17:48:00,54.1,45.6,30.15,WNW,302,9.2,9.2,73,0.00,CLR,,0.00,WeatherDisplay:10.37,2014-01-22 22:48:00,
2014-01-22 17:53:00,53.8,45.7,30.15,NW,306,4.6,4.6,74,0.00,CLR,,0.00,WeatherDisplay:10.37,2014-01-22 22:53:00,
2014-01-22 17:58:00,53.6,45.5,30.15,NW,311,3.5,3.5,74,0.00,CLR,,0.00,WeatherDisplay:10.37,2014-01-22 22:58:00,
2014-01-22 18:03:00,53.4,45.7,30.15,NW,314,3.5,3.5,75,0.00,CLR,,0.00,WeatherDisplay:10.37,2014-01-22 23:03:00,
2014-01-22 18:08:00,53.0,45.3,30.15,West,278,0.0,0.0,75,0.00,CLR,,0.00,WeatherDisplay:10.37,2014-01-22 23:08:00,
2014-01-22 18:13:00,52.7,45.3,30.15,NW,314,1.2,0.0,76,0.00,CLR,,0.00,WeatherDisplay:10.37,2014-01-22 23:13:00,
2014-01-22 18:18:00,52.3,45.3,30.15,WNW,290,3.5,3.5,77,0.00,CLR,,0.00,WeatherDisplay:10.37,2014-01-22 23:18:00,
2014-01-22 18:23:00,52.0,45.0,30.15,WNW,287,0.0,0.0,77,0.00,CLR,,0.00,WeatherDisplay:10.37,2014-01-22 23:23:00,
2014-01-22 18:28:00,51.6,45.0,30.15,WNW,287,0.0,0.0,78,0.00,CLR,,0.00,WeatherDisplay:10.37,2014-01-22 23:28:00,
2014-01-22 18:33:00,51.2,44.9,30.15,WNW,286,0.0,0.0,79,0.00,CLR,,0.00,WeatherDisplay:10.37,2014-01-22 23:33:00,
2014-01-22 18:38:00,50.9,44.9,30.16,WNW,285,1.2,1.2,80,0.00,CLR,,0.00,WeatherDisplay:10.37,2014-01-22 23:38:00,
2014-01-22 18:43:00,50.8,44.9,30.16,WNW,291,2.3,0.0,80,0.00,CLR,,0.00,WeatherDisplay:10.37,2014-01-22 23:43:00,
2014-01-22 18:48:00,50.7,45.1,30.16,NW,308,0.0,0.0,81,0.00,CLR,,0.00,WeatherDisplay:10.37,2014-01-22 23:48:00,
2014-01-22 18:53:00,50.8,44.9,30.16,WNW,282,3.5,3.5,80,0.00,CLR,,0.00,WeatherDisplay:10.37,2014-01-22 23:53:00,
2014-01-22 18:58:00,51.0,45.0,30.16,WNW,290,2.3,2.3,80,0.00,CLR,,0.00,WeatherDisplay:10.37,2014-01-22 23:58:00,
2014-01-22 19:03:00,51.2,44.9,30.16,NW,305,3.5,3.5,79,0.00,CLR,,0.00,WeatherDisplay:10.37,2014-01-23 00:03:00,
2014-01-22 19:08:00,51.3,45.0,30.16,WNW,294,3.5,3.5,79,0.00,CLR,,0.00,WeatherDisplay:10.37,2014-01-23 00:08:00,
2014-01-22 19:13:00,51.3,45.0,30.16,WNW,292,2.3,2.3,79,0.00,CLR,,0.00,WeatherDisplay:10.37,2014-01-23 00:13:00,
2014-01-22 19:18:00,51.2,44.9,30.16,WNW,293,3.5,3.5,79,0.00,CLR,,0.00,WeatherDisplay:10.37,2014-01-23 00:18:00,
2014-01-22 19:23:00,51.2,44.9,30.17,West,264,0.0,0.0,79,0.00,CLR,,0.00,WeatherDisplay:10.37,2014-01-23 00:23:00,
2014-01-22 19:28:00,50.9,44.6,30.17,West,266,0.0,0.0,79,0.00,CLR,,0.00,WeatherDisplay:10.37,2014-01-23 00:28:00,
2014-01-22 19:33:00,50.6,44.7,30.17,NW,306,2.3,0.0,80,0.00,CLR,,0.00,WeatherDisplay:10.37,2014-01-23 00:33:00,
2014-01-22 19:38:00,50.3,44.4,30.17,WNW,288,0.0,0.0,80,0.00,CLR,,0.00,WeatherDisplay:10.37,2014-01-23 00:38:00,
2014-01-22 19:43:00,50.1,44.5,30.17,WNW,290,1.2,0.0,81,0.00,CLR,,0.00,WeatherDisplay:10.37,2014-01-23 00:43:00,
2014-01-22 19:48:00,50.1,44.5,30.17,WNW,290,0.0,0.0,81,0.00,CLR,,0.00,WeatherDisplay:10.37,2014-01-23 00:48:00,
2014-01-22 19:53:00,49.9,44.3,30.17,NW,306,2.0,2.0,81,0.00,CLR,,0.00,WeatherDisplay:10.37,2014-01-23 00:53:00,
2014-01-22 21:15:00,49.3,44.4,30.19,NW,315,2.3,2.3,83,0.00,CLR,,0.00,WeatherDisplay:10.37,2014-01-23 02:15:00,
2014-01-22 21:16:00,49.3,44.4,30.19,NW,318,2.3,2.3,83,0.00,CLR,,0.00,WeatherDisplay:10.37,2014-01-23 02:16:00,
2014-01-22 21:21:00,49.1,44.5,30.19,NW,311,3.5,3.5,84,0.00,CLR,,0.00,WeatherDisplay:10.37,2014-01-23 02:21:00,
2014-01-22 21:22:00,49.1,44.5,30.19,NW,314,3.5,3.5,84,0.00,CLR,,0.00,WeatherDisplay:10.37,2014-01-23 02:22:00,
2014-01-22 21:23:00,49.1,44.5,30.19,NW,310,3.5,3.5,84,0.00,CLR,,0.00,WeatherDisplay:10.37,2014-01-23 02:23:00,
2014-01-22 21:24:00,49.1,44.5,30.19,NW,324,3.5,3.5,84,0.00,CLR,,0.00,WeatherDisplay:10.37,2014-01-23 02:24:00,
2014-01-22 21:29:00,49.0,44.7,30.19,NNW,330,3.5,3.5,85,0.00,CLR,,0.00,WeatherDisplay:10.37,2014-01-23 02:29:00,
2014-01-22 21:34:00,48.9,44.6,30.19,NW,316,4.0,4.0,85,0.00,CLR,,0.00,WeatherDisplay:10.37,2014-01-23 02:34:00,
2014-01-22 21:39:00,48.9,44.6,30.19,NW,308,3.5,3.5,85,0.00,CLR,,0.00,WeatherDisplay:10.37,2014-01-23 02:39:00,
2014-01-22 21:44:00,48.7,44.4,30.19,NW,316,3.0,3.0,85,0.00,CLR,,0.00,WeatherDisplay:10.37,2014-01-23 02:44:00,
2014-01-22 21:49:00,48.7,44.7,30.19,NNW,330,3.5,3.5,86,0.00,CLR,,0.00,WeatherDisplay:10.37,2014-01-23 02:49:00,
2014-01-22 21:54:00,48.6,44.3,30.20,NW,312,2.3,2.3,85,0.00,CLR,,0.00,WeatherDisplay:10.37,2014-01-23 02:54:00,
2014-01-22 21:59:00,48.4,44.1,30.20,NW,324,3.5,3.5,85,0.00,CLR,,0.00,WeatherDisplay:10.37,2014-01-23 02:59:00,
2014-01-22 22:04:00,48.4,44.1,30.20,NNW,328,3.5,3.5,85,0.00,CLR,,0.00,WeatherDisplay:10.37,2014-01-23 03:04:00,
2014-01-22 22:09:00,48.3,43.7,30.20,North,9,3.5,3.5,84,0.00,CLR,,0.00,WeatherDisplay:10.37,2014-01-23 03:09:00,
2014-01-22 22:14:00,48.2,43.3,30.20,NW,318,2.3,2.3,83,0.00,CLR,,0.00,WeatherDisplay:10.37,2014-01-23 03:14:00,
2014-01-22 22:19:00,48.2,43.6,30.20,NW,316,2.3,2.3,84,0.00,CLR,,0.00,WeatherDisplay:10.37,2014-01-23 03:19:00,
2014-01-22 22:24:00,48.0,43.4,30.20,NW,311,1.2,1.2,84,0.00,CLR,,0.00,WeatherDisplay:10.37,2014-01-23 03:24:00,
2014-01-22 22:29:00,47.9,43.3,30.20,WNW,301,3.5,3.5,84,0.00,CLR,,0.00,WeatherDisplay:10.37,2014-01-23 03:29:00,
2014-01-22 22:34:00,47.7,43.1,30.20,NW,305,1.2,1.2,84,0.00,CLR,,0.00,WeatherDisplay:10.37,2014-01-23 03:34:00,
2014-01-22 22:35:00,47.7,43.1,30.20,NW,305,2.0,2.0,84,0.00,CLR,,0.00,WeatherDisplay:10.37,2014-01-23 03:35:00,
2014-01-22 22:40:00,47.6,43.0,30.20,NW,306,0.0,0.0,84,0.00,CLR,,0.00,WeatherDisplay:10.37,2014-01-23 03:40:00,
2014-01-22 22:45:00,47.5,43.2,30.20,NW,305,1.2,1.2,85,0.00,CLR,,0.00,WeatherDisplay:10.37,2014-01-23 03:45:00,
2014-01-22 22:50:00,47.4,43.1,30.20,NW,305,0.0,0.0,85,0.00,CLR,,0.00,WeatherDisplay:10.37,2014-01-23 03:50:00,
2014-01-22 22:55:00,47.3,43.0,30.20,NW,305,1.2,1.2,85,0.00,CLR,,0.00,WeatherDisplay:10.37,2014-01-23 03:55:00,
2014-01-22 23:00:00,47.1,43.1,30.20,NW,307,2.3,2.3,86,0.00,CLR,,0.00,WeatherDisplay:10.37,2014-01-23 04:00:00,
2014-01-22 23:05:00,47.0,43.0,30.20,NW,306,2.3,2.3,86,0.00,CLR,,0.00,WeatherDisplay:10.37,2014-01-23 04:05:00,
2014-01-22 23:10:00,46.9,43.2,30.20,NW,314,3.5,3.5,87,0.00,CLR,,0.00,WeatherDisplay:10.37,2014-01-23 04:10:00,
2014-01-22 23:15:00,46.7,43.0,30.20,NW,305,2.3,2.3,87,0.00,CLR,,0.00,WeatherDisplay:10.37,2014-01-23 04:15:00,
2014-01-22 23:20:00,46.6,42.9,30.21,NW,314,1.2,1.2,87,0.00,CLR,,0.00,WeatherDisplay:10.37,2014-01-23 04:20:00,
2014-01-22 23:25:00,46.5,42.8,30.21,WNW,302,2.3,2.3,87,0.00,CLR,,0.00,WeatherDisplay:10.37,2014-01-23 04:25:00,
2014-01-22 23:30:00,46.4,42.7,30.21,WNW,300,2.3,2.3,87,0.00,CLR,,0.00,WeatherDisplay:10.37,2014-01-23 04:30:00,
2014-01-22 23:35:00,46.3,42.6,30.20,WNW,302,3.5,3.5,87,0.00,CLR,,0.00,WeatherDisplay:10.37,2014-01-23 04:35:00,
2014-01-22 23:40:00,46.3,42.6,30.20,NW,312,3.5,3.5,87,0.00,CLR,,0.00,WeatherDisplay:10.37,2014-01-23 04:40:00,
2014-01-22 23:45:00,46.3,42.6,30.20,NW,319,3.5,3.5,87,0.00,CLR,,0.00,WeatherDisplay:10.37,2014-01-23 04:45:00,
2014-01-22 23:50:00,46.1,42.4,30.20,NW,320,2.3,2.3,87,0.00,CLR,,0.00,WeatherDisplay:10.37,2014-01-23 04:50:00,
2014-01-22 23:55:00,46.1,42.4,30.20,NW,317,1.2,1.2,87,0.00,CLR,,0.00,WeatherDisplay:10.37,2014-01-23 04:55:00,